Time;durP1;ratioP1;P1;durP2;ratioP2;P2;SDS_P1;SDS_P2;PMS_P1;PMS_P2;Temp;Humidity;BMP_temperature;BMP_pressure;BME280_temperature;BME280_humidity;BME280_pressure;Samples;Min_cycle;Max_cycle;Signal;HPM_P1;HPM_P2
2022/04/02 00:02:06;;;;;;;17.42;5.00;;;;;;;;;;5053310;28;20088;-69
2022/04/02 00:04:36;;;;;;;16.10;4.90;;;;;;;;;;5053133;28;20395;-69
2022/04/02 00:07:09;;;;;;;15.38;4.85;;;;;;;;;;5053625;28;20124;-69
2022/04/02 00:09:37;;;;;;;13.20;4.35;;;;;;;;;;5053333;28;20127;-70
2022/04/02 00:12:07;;;;;;;13.88;4.25;;;;;;;;;;5053157;28;20052;-69
2022/04/02 00:14:45;;;;;;;23.80;5.60;;;;;;;;;;5053352;28;20041;-69
2022/04/02 00:17:38;;;;;;;19.83;4.80;;;;;;;;;;5053086;28;20052;-69
2022/04/02 00:20:06;;;;;;;19.67;4.60;;;;;;;;;;5052763;28;20037;-69
2022/04/02 00:26:10;;;;;;;11.40;4.13;;;;;;;;;;5053441;28;20041;-69
2022/04/02 00:28:39;;;;;;;13.82;4.28;;;;;;;;;;5057171;28;20095;-69
2022/04/02 00:31:12;;;;;;;11.43;3.80;;;;;;;;;;5023428;28;20407;-69
2022/04/02 00:33:46;;;;;;;6.00;2.85;;;;;;;;;;5039265;28;20402;-69
2022/04/02 00:36:15;;;;;;;7.95;3.20;;;;;;;;;;5056865;28;20053;-69
2022/04/02 00:38:47;;;;;;;7.90;3.20;;;;;;;;;;5057198;28;20620;-69
2022/04/02 00:41:15;;;;;;;8.40;2.90;;;;;;;;;;5056935;28;20049;-69
2022/04/02 00:44:02;;;;;;;10.15;3.20;;;;;;;;;;5055891;28;20070;-69
2022/04/02 00:46:33;;;;;;;7.78;3.85;;;;;;;;;;5039168;28;20053;-70
2022/04/02 00:49:05;;;;;;;11.10;3.22;;;;;;;;;;5039002;28;20049;-69
2022/04/02 00:51:41;;;;;;;9.35;2.90;;;;;;;;;;5056688;28;20098;-69
2022/04/02 00:54:15;;;;;;;9.60;3.45;;;;;;;;;;5056879;28;20469;-69
2022/04/02 00:56:43;;;;;;;7.22;2.88;;;;;;;;;;5039435;28;20049;-69
2022/04/02 00:59:13;;;;;;;6.22;2.50;;;;;;;;;;5038886;28;20132;-69
2022/04/02 01:01:49;;;;;;;6.68;3.00;;;;;;;;;;5056976;28;20049;-69
2022/04/02 01:04:22;;;;;;;8.45;2.85;;;;;;;;;;5038913;28;20052;-70
2022/04/02 01:06:51;;;;;;;9.50;2.80;;;;;;;;;;5038667;28;20414;-70
2022/04/02 01:09:46;;;;;;;4.75;2.72;;;;;;;;;;5038575;28;20045;-69
2022/04/02 01:12:14;;;;;;;9.38;3.80;;;;;;;;;;5037763;28;20049;-70
2022/04/02 01:14:47;;;;;;;7.95;3.15;;;;;;;;;;5038565;28;20060;-70
2022/04/02 01:17:25;;;;;;;7.55;3.22;;;;;;;;;;5038506;28;20052;-70
2022/04/02 01:19:57;;;;;;;7.90;3.17;;;;;;;;;;5038431;28;20049;-70
2022/04/02 01:22:33;;;;;;;8.93;3.20;;;;;;;;;;5038180;28;20041;-69
2022/04/02 01:25:05;;;;;;;9.10;3.17;;;;;;;;;;5038256;28;20049;-69
2022/04/02 01:27:54;;;;;;;8.20;2.75;;;;;;;;;;5056514;28;20052;-70
2022/04/02 01:30:22;;;;;;;6.53;2.92;;;;;;;;;;5037927;28;20052;-70
2022/04/02 01:33:05;;;;;;;6.97;2.72;;;;;;;;;;5038456;28;20045;-70
2022/04/02 01:35:34;;;;;;;5.47;2.97;;;;;;;;;;5038432;28;20434;-70
2022/04/02 01:38:29;;;;;;;6.50;2.88;;;;;;;;;;5055103;28;20045;-69
2022/04/02 01:40:58;;;;;;;4.85;3.15;;;;;;;;;;5037851;28;20406;-69
2022/04/02 01:43:36;;;;;;;8.95;3.17;;;;;;;;;;5056064;28;20380;-69
2022/04/02 01:46:08;;;;;;;9.35;3.33;;;;;;;;;;5037595;28;20060;-69
2022/04/02 01:48:42;;;;;;;9.30;3.30;;;;;;;;;;5055896;28;20033;-69
2022/04/02 01:51:10;;;;;;;6.45;2.97;;;;;;;;;;5055592;28;20036;-69
2022/04/02 01:53:38;;;;;;;9.32;3.22;;;;;;;;;;5037454;28;20041;-69
2022/04/02 01:56:13;;;;;;;7.20;3.40;;;;;;;;;;5037684;28;20124;-69
2022/04/02 01:59:11;;;;;;;7.45;3.15;;;;;;;;;;5037546;28;20143;-69
2022/04/02 02:01:43;;;;;;;7.63;2.88;;;;;;;;;;5037922;28;20045;-69
2022/04/02 02:04:13;;;;;;;8.15;3.20;;;;;;;;;;5037733;28;20072;-70
2022/04/02 02:06:45;;;;;;;5.68;3.30;;;;;;;;;;5055416;28;20116;-70
2022/04/02 02:09:19;;;;;;;7.05;2.90;;;;;;;;;;5037449;28;20531;-70
2022/04/02 02:12:30;;;;;;;5.70;2.67;;;;;;;;;;5055609;28;20052;-71
2022/04/02 02:15:18;;;;;;;5.95;2.78;;;;;;;;;;5037465;28;20045;-70
2022/04/02 02:18:01;;;;;;;4.53;2.97;;;;;;;;;;5037299;28;20053;-71
2022/04/02 02:20:31;;;;;;;4.88;2.60;;;;;;;;;;5055283;28;20076;-70
2022/04/02 02:23:24;;;;;;;5.20;2.92;;;;;;;;;;5036980;28;20135;-70
2022/04/02 02:26:16;;;;;;;7.80;3.10;;;;;;;;;;5055261;28;20037;-70
2022/04/02 02:28:48;;;;;;;7.13;3.00;;;;;;;;;;5037276;28;20049;-70
2022/04/02 02:31:47;;;;;;;7.20;2.80;;;;;;;;;;5036995;28;20045;-70
2022/04/02 02:37:18;;;;;;;4.38;2.70;;;;;;;;;;5036870;28;20494;-70
2022/04/02 02:39:58;;;;;;;4.47;2.70;;;;;;;;;;5036935;28;20049;-70
2022/04/02 02:42:27;;;;;;;6.82;2.88;;;;;;;;;;5035776;28;20079;-71
2022/04/02 02:45:46;;;;;;;6.88;2.60;;;;;;;;;;5049648;28;20072;-70
2022/04/02 02:48:39;;;;;;;7.30;3.17;;;;;;;;;;5036700;28;20498;-70
2022/04/02 02:51:08;;;;;;;5.65;2.80;;;;;;;;;;5036398;28;20045;-70
2022/04/02 02:53:35;;;;;;;5.97;2.72;;;;;;;;;;5036660;28;20037;-70
2022/04/02 02:56:05;;;;;;;8.45;3.03;;;;;;;;;;5036946;28;20045;-70
2022/04/02 02:58:35;;;;;;;5.85;2.97;;;;;;;;;;5036558;28;20041;-70
2022/04/02 03:01:04;;;;;;;4.65;2.80;;;;;;;;;;5054845;28;20049;-70
2022/04/02 03:03:42;;;;;;;4.82;3.03;;;;;;;;;;5036385;28;20507;-70
2022/04/02 03:06:20;;;;;;;9.23;3.45;;;;;;;;;;5036204;28;20491;-70
2022/04/02 03:08:48;;;;;;;5.95;3.15;;;;;;;;;;5054250;28;20041;-71
2022/04/02 03:11:43;;;;;;;5.40;2.88;;;;;;;;;;5036690;28;20052;-71
2022/04/02 03:14:19;;;;;;;7.70;3.60;;;;;;;;;;5036426;28;20052;-71
2022/04/02 03:16:51;;;;;;;5.43;3.20;;;;;;;;;;5054092;28;20045;-71
2022/04/02 03:19:24;;;;;;;5.90;3.20;;;;;;;;;;5036122;28;20045;-71
2022/04/02 03:21:55;;;;;;;8.05;3.30;;;;;;;;;;5036092;28;20044;-71
2022/04/02 03:24:26;;;;;;;9.18;3.65;;;;;;;;;;5054065;28;20045;-71
2022/04/02 03:26:59;;;;;;;6.25;3.13;;;;;;;;;;5035914;28;20041;-71
2022/04/02 03:29:43;;;;;;;8.80;3.78;;;;;;;;;;5036207;28;20045;-69
2022/04/02 03:32:14;;;;;;;6.95;3.20;;;;;;;;;;5036263;28;20463;-70
2022/04/02 03:34:45;;;;;;;6.43;3.50;;;;;;;;;;5036053;28;20129;-71
2022/04/02 03:37:17;;;;;;;5.30;2.33;;;;;;;;;;5036047;28;20557;-69
2022/04/02 03:39:44;;;;;;;5.95;3.08;;;;;;;;;;5053564;28;20041;-70
2022/04/02 03:42:13;;;;;;;8.32;3.03;;;;;;;;;;5035400;28;20497;-70
2022/04/02 03:44:47;;;;;;;6.72;2.90;;;;;;;;;;5035786;28;20495;-70
2022/04/02 03:47:22;;;;;;;6.68;2.95;;;;;;;;;;5035716;28;20048;-71
2022/04/02 03:49:54;;;;;;;5.93;3.22;;;;;;;;;;5035430;28;20095;-71
2022/04/02 03:52:42;;;;;;;6.00;3.30;;;;;;;;;;5035666;28;20041;-69
2022/04/02 03:55:39;;;;;;;7.35;3.08;;;;;;;;;;5035565;28;20060;-70
2022/04/02 03:58:19;;;;;;;5.95;3.20;;;;;;;;;;5035403;28;20144;-70
2022/04/02 04:00:47;;;;;;;7.28;3.00;;;;;;;;;;5034790;28;20557;-70
2022/04/02 04:03:20;;;;;;;6.80;2.88;;;;;;;;;;5035455;28;20098;-71
2022/04/02 04:05:56;;;;;;;7.60;2.60;;;;;;;;;;5035705;28;20049;-71
2022/04/02 04:08:25;;;;;;;5.70;2.95;;;;;;;;;;5035228;28;20367;-71
2022/04/02 04:11:21;;;;;;;7.50;3.20;;;;;;;;;;5035431;28;20437;-71
2022/04/02 04:14:17;;;;;;;12.30;4.35;;;;;;;;;;5035195;28;20041;-71
2022/04/02 04:16:47;;;;;;;7.22;3.40;;;;;;;;;;5053271;28;20372;-69
2022/04/02 04:19:18;;;;;;;7.28;3.72;;;;;;;;;;5035196;28;20461;-69
2022/04/02 04:21:49;;;;;;;5.75;3.08;;;;;;;;;;5035689;28;20045;-71
2022/04/02 04:24:21;;;;;;;5.97;3.10;;;;;;;;;;5035161;28;20103;-71
2022/04/02 04:27:14;;;;;;;7.32;3.13;;;;;;;;;;5035306;28;20132;-71
2022/04/02 04:29:49;;;;;;;7.97;3.67;;;;;;;;;;5035183;28;20055;-69
2022/04/02 04:32:19;;;;;;;7.57;3.35;;;;;;;;;;5053271;28;20041;-69
2022/04/02 04:34:47;;;;;;;6.38;3.22;;;;;;;;;;5034695;28;20041;-69
2022/04/02 04:37:19;;;;;;;13.82;4.82;;;;;;;;;;5053148;28;20049;-69
2022/04/02 04:39:50;;;;;;;7.30;3.70;;;;;;;;;;5035737;28;20054;-69
2022/04/02 04:42:24;;;;;;;7.75;3.13;;;;;;;;;;5031305;28;20411;-70
2022/04/02 04:44:56;;;;;;;7.28;3.67;;;;;;;;;;5032936;28;20140;-71
2022/04/02 04:47:28;;;;;;;6.55;2.60;;;;;;;;;;5031582;28;20045;-71
2022/04/02 04:50:01;;;;;;;5.35;2.90;;;;;;;;;;5033277;28;20488;-71
2022/04/02 04:52:35;;;;;;;9.70;3.60;;;;;;;;;;5031797;28;20061;-71
2022/04/02 04:55:06;;;;;;;5.13;3.83;;;;;;;;;;5031734;28;20061;-71
2022/04/02 04:58:00;;;;;;;4.00;2.50;;;;;;;;;;5031749;28;20079;-71
2022/04/02 05:00:34;;;;;;;12.50;3.95;;;;;;;;;;5031643;28;20467;-71
2022/04/02 05:03:06;;;;;;;7.35;5.18;;;;;;;;;;5031585;28;20049;-71
2022/04/02 05:05:47;;;;;;;16.30;10.07;;;;;;;;;;5031520;28;20057;-71
2022/04/02 05:08:20;;;;;;;8.88;5.18;;;;;;;;;;5032959;28;20034;-71
2022/04/02 05:11:15;;;;;;;5.85;3.33;;;;;;;;;;5031538;28;20495;-71
2022/04/02 05:14:13;;;;;;;7.55;2.75;;;;;;;;;;5035624;28;20080;-71
2022/04/02 05:17:10;;;;;;;14.50;3.53;;;;;;;;;;5034927;28;20080;-72
2022/04/02 05:19:38;;;;;;;6.60;2.70;;;;;;;;;;5035297;28;20116;-72
2022/04/02 05:22:16;;;;;;;4.38;2.30;;;;;;;;;;5035593;28;20502;-71
2022/04/02 05:24:48;;;;;;;6.57;2.53;;;;;;;;;;5034921;28;20081;-71
2022/04/02 05:27:18;;;;;;;5.00;2.15;;;;;;;;;;5038770;28;20140;-72
2022/04/02 05:29:47;;;;;;;5.07;2.60;;;;;;;;;;5041791;28;20040;-72
2022/04/02 05:32:16;;;;;;;5.65;2.95;;;;;;;;;;5056312;28;20523;-72
2022/04/02 05:34:43;;;;;;;5.75;3.03;;;;;;;;;;5047357;28;20449;-72
2022/04/02 05:37:11;;;;;;;5.13;2.80;;;;;;;;;;5035886;28;20084;-72
2022/04/02 05:39:43;;;;;;;5.80;2.60;;;;;;;;;;5035236;28;20033;-72
2022/04/02 05:42:12;;;;;;;5.50;2.65;;;;;;;;;;5047828;28;20048;-71
2022/04/02 05:44:43;;;;;;;4.20;2.30;;;;;;;;;;5047958;28;20067;-71
2022/04/02 05:47:18;;;;;;;5.07;2.30;;;;;;;;;;5054610;28;20549;-72
2022/04/02 05:49:51;;;;;;;5.07;2.40;;;;;;;;;;5055493;28;20049;-72
2022/04/02 05:52:33;;;;;;;3.40;2.22;;;;;;;;;;5055869;28;20041;-72
2022/04/02 05:55:00;;;;;;;3.03;2.00;;;;;;;;;;5055505;28;20495;-72
2022/04/02 05:57:37;;;;;;;2.63;1.80;;;;;;;;;;5055489;28;20044;-70
2022/04/02 06:00:12;;;;;;;3.38;2.00;;;;;;;;;;5055500;28;20041;-70
2022/04/02 06:02:43;;;;;;;3.80;2.08;;;;;;;;;;5055344;28;20466;-70
2022/04/02 06:05:35;;;;;;;3.90;1.90;;;;;;;;;;5056195;28;20052;-70
2022/04/02 06:08:07;;;;;;;3.63;2.47;;;;;;;;;;5056447;28;20471;-70
2022/04/02 06:10:44;;;;;;;4.25;2.40;;;;;;;;;;5055381;28;20044;-70
2022/04/02 06:13:12;;;;;;;3.45;1.90;;;;;;;;;;5055289;28;20041;-70
2022/04/02 06:15:43;;;;;;;2.60;1.85;;;;;;;;;;5055681;28;20056;-70
2022/04/02 06:18:17;;;;;;;4.22;2.47;;;;;;;;;;5055198;28;20041;-70
2022/04/02 06:20:48;;;;;;;2.75;1.90;;;;;;;;;;5054990;28;20098;-70
2022/04/02 06:23:22;;;;;;;4.60;2.88;;;;;;;;;;5055444;28;20052;-70
2022/04/02 06:25:51;;;;;;;4.72;2.00;;;;;;;;;;5055016;28;20037;-71
2022/04/02 06:28:20;;;;;;;3.90;1.75;;;;;;;;;;5054939;28;20033;-70
2022/04/02 06:30:52;;;;;;;5.15;2.05;;;;;;;;;;5055145;28;20049;-71
2022/04/02 06:33:24;;;;;;;3.67;2.08;;;;;;;;;;5053849;28;20106;-70
2022/04/02 06:35:55;;;;;;;3.80;2.35;;;;;;;;;;5053588;28;20037;-70
2022/04/02 06:38:34;;;;;;;3.33;2.30;;;;;;;;;;5054924;28;20045;-70
2022/04/02 06:41:02;;;;;;;5.57;1.92;;;;;;;;;;5055449;28;20072;-71
2022/04/02 06:43:39;;;;;;;4.53;1.98;;;;;;;;;;5074772;28;20041;-71
2022/04/02 06:46:14;;;;;;;3.92;1.67;;;;;;;;;;5056835;28;20040;-71
2022/04/02 06:48:44;;;;;;;6.43;1.75;;;;;;;;;;5074685;28;20036;-71
2022/04/02 06:51:17;;;;;;;3.55;1.50;;;;;;;;;;5075280;28;20033;-71
2022/04/02 06:53:50;;;;;;;3.67;1.60;;;;;;;;;;5075146;28;20435;-71
2022/04/02 06:56:44;;;;;;;3.17;1.60;;;;;;;;;;5074718;28;20087;-71
2022/04/02 06:59:11;;;;;;;3.60;1.85;;;;;;;;;;5074553;28;20566;-70
2022/04/02 07:01:41;;;;;;;5.57;2.22;;;;;;;;;;5074537;28;20040;-70
2022/04/02 07:04:17;;;;;;;4.03;2.20;;;;;;;;;;5074704;28;20048;-70
2022/04/02 07:06:47;;;;;;;5.07;3.72;;;;;;;;;;5074750;28;20196;-70
2022/04/02 07:09:18;;;;;;;3.35;1.80;;;;;;;;;;5074393;28;20070;-71
2022/04/02 07:11:46;;;;;;;5.18;1.90;;;;;;;;;;5074031;28;20406;-71
2022/04/02 07:14:21;;;;;;;1.83;1.50;;;;;;;;;;5074329;28;20051;-70
2022/04/02 07:16:51;;;;;;;3.55;1.70;;;;;;;;;;5074534;28;20037;-72
2022/04/02 07:19:27;;;;;;;13.60;10.82;;;;;;;;;;5074042;28;20461;-71
2022/04/02 07:21:55;;;;;;;3.17;1.90;;;;;;;;;;5074603;28;20044;-70
2022/04/02 07:24:22;;;;;;;4.65;3.58;;;;;;;;;;5073714;28;20044;-70
2022/04/02 07:26:52;;;;;;;1.45;1.20;;;;;;;;;;5055763;28;20044;-70
2022/04/02 07:30:00;;;;;;;5.30;2.72;;;;;;;;;;5123702;22;20070;-69
2022/04/02 07:32:28;;;;;;;5.90;2.70;;;;;;;;;;5016742;28;20064;-72
2022/04/02 07:34:55;;;;;;;1.48;1.38;;;;;;;;;;5033667;28;20483;-70
2022/04/02 07:37:27;;;;;;;8.65;5.65;;;;;;;;;;5015980;28;20051;-70
2022/04/02 07:40:01;;;;;;;2.65;1.90;;;;;;;;;;5034016;28;20482;-69
2022/04/02 07:42:37;;;;;;;3.03;2.00;;;;;;;;;;5034059;28;20125;-69
2022/04/02 07:45:08;;;;;;;5.72;4.25;;;;;;;;;;5033851;28;20050;-69
2022/04/02 07:47:36;;;;;;;7.55;5.40;;;;;;;;;;5033647;28;20146;-70
2022/04/02 07:50:04;;;;;;;8.10;2.60;;;;;;;;;;5033733;28;20049;-69
2022/04/02 07:52:32;;;;;;;4.97;2.03;;;;;;;;;;5015766;28;20042;-69
2022/04/02 07:55:05;;;;;;;6.88;4.05;;;;;;;;;;5033812;28;20111;-69
2022/04/02 07:57:46;;;;;;;7.13;3.17;;;;;;;;;;5033853;28;20048;-68
2022/04/02 08:00:19;;;;;;;4.70;1.80;;;;;;;;;;5033803;28;20089;-68
2022/04/02 08:02:48;;;;;;;4.68;2.22;;;;;;;;;;5033833;28;20048;-68
2022/04/02 08:05:20;;;;;;;5.40;2.00;;;;;;;;;;5015891;28;20049;-69
2022/04/02 08:07:57;;;;;;;2.65;2.20;;;;;;;;;;5015672;28;20080;-69
2022/04/02 08:10:34;;;;;;;4.47;2.50;;;;;;;;;;5015219;28;20083;-69
2022/04/02 08:13:02;;;;;;;2.40;1.98;;;;;;;;;;5033536;28;20049;-68
2022/04/02 08:15:29;;;;;;;5.57;2.30;;;;;;;;;;5015558;28;20078;-70
2022/04/02 08:18:08;;;;;;;3.03;2.00;;;;;;;;;;5015350;28;20049;-68
2022/04/02 08:20:35;;;;;;;4.97;2.40;;;;;;;;;;5033338;28;20038;-69
2022/04/02 08:23:03;;;;;;;3.83;2.05;;;;;;;;;;5033720;28;20045;-69
2022/04/02 08:25:33;;;;;;;3.45;1.90;;;;;;;;;;5015520;28;20053;-70
2022/04/02 08:28:13;;;;;;;5.18;2.17;;;;;;;;;;5033144;28;20121;-68
2022/04/02 08:31:01;;;;;;;2.28;1.75;;;;;;;;;;5039022;28;20049;-70
2022/04/02 08:33:51;;;;;;;1.65;1.33;;;;;;;;;;5053726;28;20139;-69
2022/04/02 08:36:32;;;;;;;5.00;1.77;;;;;;;;;;5052905;28;20037;-69
2022/04/02 08:38:59;;;;;;;3.25;1.92;;;;;;;;;;5052818;28;20140;-69
2022/04/02 08:41:46;;;;;;;6.05;2.40;;;;;;;;;;5053202;28;20386;-69
2022/04/02 08:44:13;;;;;;;4.00;2.55;;;;;;;;;;5053090;28;20041;-68
2022/04/02 08:46:42;;;;;;;3.92;2.53;;;;;;;;;;5052728;28;20041;-70
2022/04/02 08:49:37;;;;;;;3.90;2.20;;;;;;;;;;5056516;28;20127;-69
2022/04/02 08:52:16;;;;;;;2.83;1.97;;;;;;;;;;5056973;28;20170;-70
2022/04/02 08:54:54;;;;;;;3.15;1.77;;;;;;;;;;5056897;28;20320;-69
2022/04/02 08:57:32;;;;;;;5.97;2.38;;;;;;;;;;5057017;28;20033;-69
2022/04/02 09:00:04;;;;;;;5.78;1.90;;;;;;;;;;5056471;28;20049;-69
2022/04/02 09:02:50;;;;;;;2.58;1.45;;;;;;;;;;5057385;28;20075;-69
2022/04/02 09:05:18;;;;;;;3.40;2.63;;;;;;;;;;5056857;28;20067;-68
2022/04/02 09:08:04;;;;;;;5.40;2.13;;;;;;;;;;5056921;28;20041;-69
2022/04/02 09:10:47;;;;;;;3.20;1.63;;;;;;;;;;5056652;28;20049;-69
2022/04/02 09:13:36;;;;;;;2.38;1.40;;;;;;;;;;5056469;28;20111;-69
2022/04/02 09:16:04;;;;;;;5.72;3.13;;;;;;;;;;5007466;28;20057;-70
2022/04/02 09:18:39;;;;;;;5.43;1.50;;;;;;;;;;5056548;28;20041;-69
2022/04/02 09:21:10;;;;;;;4.82;3.30;;;;;;;;;;5056331;28;20072;-69
2022/04/02 09:23:48;;;;;;;2.90;1.30;;;;;;;;;;5056281;28;20064;-70
2022/04/02 09:26:19;;;;;;;4.20;1.70;;;;;;;;;;5056348;28;20045;-69
2022/04/02 09:28:46;;;;;;;2.67;1.52;;;;;;;;;;5055863;28;20057;-70
2022/04/02 09:31:32;;;;;;;4.60;2.30;;;;;;;;;;5055917;28;20057;-70
2022/04/02 09:34:03;;;;;;;3.65;1.50;;;;;;;;;;5056309;28;20037;-70
2022/04/02 09:36:34;;;;;;;3.28;1.70;;;;;;;;;;5055956;28;20095;-68
2022/04/02 09:39:06;;;;;;;2.72;1.65;;;;;;;;;;5055737;28;20180;-68
2022/04/02 09:41:39;;;;;;;2.53;1.48;;;;;;;;;;5056173;28;20461;-69
2022/04/02 09:44:07;;;;;;;2.75;1.95;;;;;;;;;;5056182;28;20111;-68
2022/04/02 09:46:53;;;;;;;3.15;1.50;;;;;;;;;;5055840;28;20045;-68
2022/04/02 09:49:40;;;;;;;6.03;1.90;;;;;;;;;;5055789;28;20473;-69
2022/04/02 09:52:08;;;;;;;1.58;1.25;;;;;;;;;;5055663;28;20043;-69
2022/04/02 09:54:45;;;;;;;6.78;3.95;;;;;;;;;;5037884;28;20494;-69
2022/04/02 10:00:38;;;;;;;1.80;1.10;;;;;;;;;;5014496;28;20037;-70
2022/04/02 10:03:08;;;;;;;2.05;1.10;;;;;;;;;;5016030;28;20077;-69
2022/04/02 10:05:47;;;;;;;3.10;1.13;;;;;;;;;;5015638;28;20033;-69
2022/04/02 10:08:25;;;;;;;7.38;2.70;;;;;;;;;;5016062;28;20042;-69
2022/04/02 10:10:56;;;;;;;1.48;0.82;;;;;;;;;;5015707;28;20488;-70
2022/04/02 10:13:24;;;;;;;3.72;1.08;;;;;;;;;;5015672;28;20499;-70
2022/04/02 10:15:53;;;;;;;6.45;1.05;;;;;;;;;;5016101;28;20464;-70
2022/04/02 10:18:23;;;;;;;3.53;0.90;;;;;;;;;;5015616;28;20053;-70
2022/04/02 10:20:52;;;;;;;2.28;1.55;;;;;;;;;;5015549;28;20073;-69
2022/04/02 10:23:24;;;;;;;4.45;0.98;;;;;;;;;;5015402;28;20038;-68
2022/04/02 10:26:03;;;;;;;2.45;0.98;;;;;;;;;;5015597;28;20464;-70
2022/04/02 10:28:34;;;;;;;2.33;1.00;;;;;;;;;;5015128;28;20037;-68
2022/04/02 10:31:01;;;;;;;2.10;0.93;;;;;;;;;;5015029;28;20161;-68
2022/04/02 10:33:31;;;;;;;1.40;1.00;;;;;;;;;;5015587;28;20037;-69
2022/04/02 10:36:01;;;;;;;4.45;1.13;;;;;;;;;;5015603;28;20066;-70
2022/04/02 10:38:31;;;;;;;2.33;1.30;;;;;;;;;;5015242;28;20050;-70
2022/04/02 10:40:59;;;;;;;6.10;2.15;;;;;;;;;;5014936;28;20073;-69
2022/04/02 10:43:28;;;;;;;1.88;1.20;;;;;;;;;;5015216;28;20057;-69
2022/04/02 10:45:57;;;;;;;3.50;2.08;;;;;;;;;;5014914;28;20042;-69
2022/04/02 10:48:48;;;;;;;3.90;1.85;;;;;;;;;;5015225;28;20500;-69
2022/04/02 10:51:17;;;;;;;2.65;1.50;;;;;;;;;;5009986;28;20050;-70
2022/04/02 10:53:45;;;;;;;1.52;1.00;;;;;;;;;;5015039;28;20437;-70
2022/04/02 10:56:16;;;;;;;3.65;2.17;;;;;;;;;;5015037;28;20073;-69
2022/04/02 10:58:51;;;;;;;2.78;1.00;;;;;;;;;;5021084;28;20444;-69
2022/04/02 11:01:18;;;;;;;3.17;0.80;;;;;;;;;;5034545;28;20061;-70
2022/04/02 11:03:54;;;;;;;2.08;1.05;;;;;;;;;;5034284;28;20155;-70
2022/04/02 11:06:40;;;;;;;1.92;0.90;;;;;;;;;;5034737;28;20487;-70
2022/04/02 11:09:23;;;;;;;3.55;1.70;;;;;;;;;;5034287;28;20084;-70
2022/04/02 11:11:52;;;;;;;2.00;1.77;;;;;;;;;;5033983;28;20408;-69
2022/04/02 11:14:23;;;;;;;1.08;0.70;;;;;;;;;;5033952;28;20038;-70
2022/04/02 11:16:50;;;;;;;2.45;1.00;;;;;;;;;;5034511;28;20041;-70
2022/04/02 11:22:12;;;;;;;2.97;0.80;;;;;;;;;;5033833;28;20111;-70
2022/04/02 11:24:59;;;;;;;1.52;0.52;;;;;;;;;;5033430;28;20038;-70
2022/04/02 11:27:28;;;;;;;1.45;0.68;;;;;;;;;;5034231;28;20065;-69
2022/04/02 11:30:01;;;;;;;2.17;0.98;;;;;;;;;;5033699;28;20038;-68
2022/04/02 11:32:29;;;;;;;2.60;1.30;;;;;;;;;;5033217;28;20395;-69
2022/04/02 11:34:57;;;;;;;1.45;0.80;;;;;;;;;;5028587;28;20402;-69
2022/04/02 11:37:27;;;;;;;13.23;10.30;;;;;;;;;;5022145;28;20069;-69
2022/04/02 11:40:02;;;;;;;1.42;0.90;;;;;;;;;;5028226;28;20037;-69
2022/04/02 11:42:34;;;;;;;2.03;1.00;;;;;;;;;;5024850;28;20432;-69
2022/04/02 11:45:03;;;;;;;2.15;1.50;;;;;;;;;;5016892;28;20092;-69
2022/04/02 11:47:34;;;;;;;1.95;0.95;;;;;;;;;;5007712;28;20034;-73
2022/04/02 11:50:08;;;;;;;1.98;1.20;;;;;;;;;;5018100;28;20049;-71
2022/04/02 11:52:51;;;;;;;2.10;1.58;;;;;;;;;;5033391;28;20445;-71
2022/04/02 11:55:20;;;;;;;2.35;1.50;;;;;;;;;;5022162;28;20061;-71
2022/04/02 11:58:12;;;;;;;3.80;1.38;;;;;;;;;;5033297;28;20041;-71
2022/04/02 12:01:04;;;;;;;3.83;1.48;;;;;;;;;;5033290;28;20072;-72
2022/04/02 12:03:34;;;;;;;2.67;1.20;;;;;;;;;;5033849;28;20224;-72
2022/04/02 12:06:13;;;;;;;1.40;0.60;;;;;;;;;;5033370;28;20454;-72
2022/04/02 12:09:06;;;;;;;2.47;1.50;;;;;;;;;;5033020;28;20042;-71
2022/04/02 12:11:59;;;;;;;2.63;0.90;;;;;;;;;;5033296;28;20052;-72
2022/04/02 12:14:58;;;;;;;2.15;1.40;;;;;;;;;;5032914;28;20045;-72
2022/04/02 12:17:31;;;;;;;2.28;1.30;;;;;;;;;;5033401;28;20396;-71
2022/04/02 12:20:02;;;;;;;1.67;1.00;;;;;;;;;;5033548;28;20458;-71
2022/04/02 12:22:36;;;;;;;2.25;1.00;;;;;;;;;;5031521;28;20503;-71
2022/04/02 12:25:13;;;;;;;1.80;1.05;;;;;;;;;;5033289;28;20041;-71
2022/04/02 12:27:48;;;;;;;3.70;0.88;;;;;;;;;;5033251;28;20446;-73
2022/04/02 12:30:15;;;;;;;;;;;;;;;;;;5033076;28;20084;-73
2022/04/02 12:32:44;;;;;;;2.13;1.20;;;;;;;;;;5032796;28;20015;-73
2022/04/02 12:35:12;;;;;;;2.72;1.10;;;;;;;;;;5031093;28;20494;-74
2022/04/02 12:37:41;;;;;;;3.13;1.13;;;;;;;;;;5030869;28;20047;-72
2022/04/02 12:40:21;;;;;;;1.98;1.50;;;;;;;;;;5032280;28;20050;-73
2022/04/02 12:42:53;;;;;;;3.45;1.67;;;;;;;;;;5021005;28;20514;-73
2022/04/02 12:45:24;;;;;;;1.33;1.15;;;;;;;;;;4995785;28;20065;-74
2022/04/02 12:48:11;;;;;;;1.55;0.80;;;;;;;;;;5013287;28;20042;-72
2022/04/02 12:50:43;;;;;;;3.13;0.90;;;;;;;;;;4995466;28;20088;-74
2022/04/02 12:53:26;;;;;;;3.53;1.50;;;;;;;;;;5012910;28;20038;-74
2022/04/02 12:55:55;;;;;;;5.35;1.33;;;;;;;;;;5013081;28;20125;-74
2022/04/02 12:58:36;;;;;;;2.63;1.40;;;;;;;;;;5028785;28;20057;-74
2022/04/02 13:01:32;;;;;;;3.00;1.00;;;;;;;;;;5032191;28;20488;-73
2022/04/02 13:04:06;;;;;;;2.03;1.38;;;;;;;;;;5026846;28;20468;-74
2022/04/02 13:06:34;;;;;;;4.50;1.80;;;;;;;;;;5032077;28;20047;-74
2022/04/02 13:09:15;;;;;;;2.30;1.15;;;;;;;;;;5031858;28;20045;-73
2022/04/02 13:11:49;;;;;;;2.63;1.20;;;;;;;;;;5032229;28;20069;-73
2022/04/02 13:14:18;;;;;;;1.45;1.05;;;;;;;;;;5030146;28;20041;-73
2022/04/02 13:16:48;;;;;;;1.65;1.08;;;;;;;;;;5010145;28;20041;-73
2022/04/02 13:22:16;;;;;;;1.85;1.35;;;;;;;;;;5031866;28;20411;-73
2022/04/02 13:24:48;;;;;;;4.70;2.97;;;;;;;;;;5032518;28;20061;-73
2022/04/02 13:27:28;;;;;;;7.70;5.70;;;;;;;;;;5032300;28;20049;-72
2022/04/02 13:29:56;;;;;;;3.42;2.00;;;;;;;;;;5032106;28;20049;-73
2022/04/02 13:32:23;;;;;;;1.70;1.33;;;;;;;;;;5032095;28;20109;-72
2022/04/02 13:35:17;;;;;;;3.15;1.67;;;;;;;;;;5035471;28;20046;-72
2022/04/02 13:38:00;;;;;;;4.47;2.15;;;;;;;;;;5006029;28;20073;-72
2022/04/02 13:40:29;;;;;;;4.75;2.00;;;;;;;;;;5035553;28;20409;-77
2022/04/02 13:42:58;;;;;;;4.57;1.60;;;;;;;;;;5035636;28;20120;-74
2022/04/02 13:45:26;;;;;;;4.78;1.38;;;;;;;;;;5018164;28;20052;-69
2022/04/02 13:48:02;;;;;;;4.45;1.58;;;;;;;;;;5035652;28;20037;-69
2022/04/02 13:50:30;;;;;;;2.50;0.85;;;;;;;;;;5032719;28;20052;-69
2022/04/02 13:53:03;;;;;;;3.00;1.45;;;;;;;;;;5035335;28;20486;-70
2022/04/02 13:55:31;;;;;;;5.18;2.10;;;;;;;;;;5035631;28;20072;-70
2022/04/02 13:58:06;;;;;;;3.55;2.10;;;;;;;;;;5035014;28;20052;-70
2022/04/02 14:00:37;;;;;;;4.38;2.00;;;;;;;;;;5035214;28;20073;-70
2022/04/02 14:03:07;;;;;;;7.80;2.30;;;;;;;;;;5035307;28;20048;-69
2022/04/02 14:05:39;;;;;;;5.53;2.72;;;;;;;;;;5035495;28;20041;-68
2022/04/02 14:08:09;;;;;;;4.80;2.90;;;;;;;;;;5035034;28;20042;-69
2022/04/02 14:10:37;;;;;;;9.93;2.88;;;;;;;;;;5035160;28;20480;-67
2022/04/02 14:13:21;;;;;;;5.00;2.28;;;;;;;;;;5034828;28;20064;-67
2022/04/02 14:15:51;;;;;;;6.55;2.30;;;;;;;;;;5035297;28;20076;-67
2022/04/02 14:21:35;;;;;;;2.80;1.35;;;;;;;;;;4989709;28;20144;-67
2022/04/02 14:24:25;;;;;;;2.35;0.90;;;;;;;;;;4995700;28;20065;-67
2022/04/02 14:27:02;;;;;;;3.58;1.30;;;;;;;;;;5074736;23;20080;-67
2022/04/02 14:29:45;;;;;;;2.67;1.55;;;;;;;;;;5034429;28;20047;-67
2022/04/02 14:32:14;;;;;;;9.77;1.70;;;;;;;;;;5035094;28;20053;-67
2022/04/02 14:34:50;;;;;;;1.10;0.70;;;;;;;;;;5034951;28;20084;-68
2022/04/02 14:37:25;;;;;;;3.63;0.75;;;;;;;;;;5034846;28;20080;-67
2022/04/02 14:40:01;;;;;;;3.35;0.80;;;;;;;;;;5034853;28;20115;-68
2022/04/02 14:42:44;;;;;;;2.78;0.70;;;;;;;;;;5034781;28;20495;-68
2022/04/02 14:45:11;;;;;;;1.58;0.50;;;;;;;;;;5034242;28;20053;-67
2022/04/02 14:47:57;;;;;;;1.90;0.50;;;;;;;;;;5042618;28;20124;-67
2022/04/02 14:50:44;;;;;;;1.52;0.77;;;;;;;;;;5048637;28;20471;-68
2022/04/02 14:53:31;;;;;;;4.93;1.67;;;;;;;;;;5051463;28;20044;-67
2022/04/02 14:56:21;;;;;;;5.38;1.95;;;;;;;;;;5054460;28;20505;-68
2022/04/02 15:12:38;;;;;;;2.45;0.80;;;;;;;;;;5111171;27;20358;-69
2022/04/02 15:15:07;;;;;;;5.78;0.82;;;;;;;;;;5110875;28;20040;-70
2022/04/02 15:17:37;;;;;;;2.67;0.82;;;;;;;;;;5110579;28;20039;-71
2022/04/02 15:20:09;;;;;;;3.30;1.58;;;;;;;;;;5109821;28;20078;-83
2022/04/02 15:22:39;;;;;;;1.30;0.60;;;;;;;;;;5110944;28;20040;-71
2022/04/02 15:25:19;;;;;;;9.73;5.60;;;;;;;;;;5110463;28;20078;-72
2022/04/02 15:28:09;;;;;;;11.20;7.60;;;;;;;;;;5110438;28;20449;-71
2022/04/02 15:30:47;;;;;;;2.72;1.90;;;;;;;;;;5110549;28;20044;-71
2022/04/02 15:33:19;;;;;;;4.50;2.05;;;;;;;;;;5110431;28;20496;-72
2022/04/02 15:35:58;;;;;;;3.70;2.03;;;;;;;;;;5110497;28;20047;-72
2022/04/02 15:38:54;;;;;;;4.50;1.90;;;;;;;;;;5109135;28;20127;-72
2022/04/02 15:41:22;;;;;;;3.03;1.55;;;;;;;;;;5098472;28;20068;-73
2022/04/02 15:43:51;;;;;;;4.53;2.00;;;;;;;;;;5093481;28;20041;-73
2022/04/02 15:46:25;;;;;;;4.47;1.92;;;;;;;;;;5090208;28;20546;-70
2022/04/02 15:49:09;;;;;;;3.73;1.77;;;;;;;;;;5089664;28;20458;-70
2022/04/02 15:51:57;;;;;;;3.50;1.90;;;;;;;;;;5089688;28;20341;-69
2022/04/02 15:54:24;;;;;;;3.85;2.00;;;;;;;;;;5085876;28;20131;-71
2022/04/02 15:57:07;;;;;;;5.55;1.80;;;;;;;;;;5089868;28;20036;-71
2022/04/02 15:59:43;;;;;;;3.33;1.85;;;;;;;;;;5089731;28;20119;-72
2022/04/02 16:02:31;;;;;;;5.30;2.00;;;;;;;;;;5089637;28;20113;-71
2022/04/02 16:05:22;;;;;;;5.30;2.72;;;;;;;;;;5089458;28;20608;-70